createdAt,value
2017-10-08T00:00:40.660Z,29.60
2017-10-08T00:02:43.380Z,33.10
2017-10-08T00:04:46.181Z,37.47
2017-10-08T00:06:49.601Z,35.43
2017-10-08T00:08:52.326Z,33.13
2017-10-08T00:10:55.004Z,35.87
2017-10-08T00:12:57.773Z,38.33
2017-10-08T00:15:00.450Z,35.03
2017-10-08T00:17:03.158Z,38.83
2017-10-08T00:19:06.738Z,35.60
2017-10-08T00:21:09.491Z,40.73
2017-10-08T00:23:12.184Z,39.30
2017-10-08T00:25:14.868Z,37.83
2017-10-08T00:27:17.601Z,35.43
2017-10-08T00:29:20.287Z,35.33
2017-10-08T00:31:23.049Z,34.23
2017-10-08T00:33:25.723Z,38.40
2017-10-08T00:35:30.772Z,35.47
2017-10-08T00:37:33.433Z,35.07
2017-10-08T00:39:36.186Z,36.23
2017-10-08T00:41:39.636Z,34.10
2017-10-08T00:43:42.331Z,38.03
2017-10-08T00:45:45.064Z,36.23
2017-10-08T00:47:47.766Z,34.20
2017-10-08T00:49:50.484Z,32.83
2017-10-08T00:51:53.903Z,28.87
2017-10-08T00:53:56.627Z,35.30
2017-10-08T00:55:59.391Z,31.80
2017-10-08T00:58:02.246Z,32.60
2017-10-08T01:00:05.111Z,31.73
2017-10-08T01:02:07.794Z,30.77
2017-10-08T01:04:10.479Z,29.47
2017-10-08T01:06:13.297Z,30.60
2017-10-08T01:08:16.036Z,30.37
2017-10-08T01:10:18.696Z,31.00
2017-10-08T01:12:22.159Z,34.07
2017-10-08T01:14:24.901Z,33.37
2017-10-08T01:16:27.562Z,29.47
2017-10-08T01:18:30.264Z,31.20
2017-10-08T01:20:33.119Z,32.47
2017-10-08T01:22:35.898Z,32.00
2017-10-08T01:24:38.678Z,32.90
2017-10-08T01:26:41.422Z,33.20
2017-10-08T01:28:44.981Z,33.10
2017-10-08T01:30:47.717Z,30.10
2017-10-08T01:32:50.417Z,30.30
2017-10-08T01:34:53.212Z,28.43
2017-10-08T01:36:56.021Z,32.03
2017-10-08T01:38:59.528Z,32.53
2017-10-08T01:41:03.013Z,34.70
2017-10-08T01:43:05.685Z,33.30
2017-10-08T01:45:08.407Z,35.07
2017-10-08T01:47:11.134Z,36.53
2017-10-08T01:49:13.861Z,35.80
2017-10-08T01:51:16.564Z,37.70
2017-10-08T01:53:19.245Z,34.70
2017-10-08T01:55:21.945Z,36.87
2017-10-08T01:57:24.684Z,35.30
2017-10-08T01:59:27.371Z,41.00
2017-10-08T02:01:30.037Z,35.40
2017-10-08T02:03:32.775Z,34.77
2017-10-08T02:05:36.292Z,36.83
2017-10-08T02:07:39.073Z,36.00
2017-10-08T02:09:41.781Z,37.57
2017-10-08T02:11:44.617Z,37.07
2017-10-08T02:13:47.371Z,37.37
2017-10-08T02:15:50.830Z,35.67
2017-10-08T02:17:53.517Z,34.33
2017-10-08T02:19:56.254Z,37.50
2017-10-08T02:21:59.032Z,36.97
2017-10-08T02:24:01.791Z,34.67
2017-10-08T02:26:05.203Z,40.00
2017-10-08T02:28:07.916Z,38.73
2017-10-08T02:30:10.639Z,35.40
2017-10-08T02:32:14.075Z,32.67
2017-10-08T02:34:16.772Z,31.27
2017-10-08T02:36:19.444Z,33.63
2017-10-08T02:38:22.144Z,33.07
2017-10-08T02:40:25.138Z,31.30
2017-10-08T02:42:28.574Z,29.67
2017-10-08T02:44:31.345Z,33.47
2017-10-08T02:46:34.024Z,31.40
2017-10-08T02:48:36.750Z,29.83
2017-10-08T02:50:39.513Z,27.80
2017-10-08T02:52:42.189Z,29.23
2017-10-08T02:54:44.835Z,28.97
2017-10-08T02:56:47.512Z,28.43
2017-10-08T02:58:50.200Z,31.40
2017-10-08T03:00:52.852Z,29.20
2017-10-08T03:02:55.544Z,28.60
2017-10-08T03:04:58.212Z,28.50
2017-10-08T03:07:00.916Z,28.43
2017-10-08T03:09:03.631Z,32.20
2017-10-08T03:11:07.172Z,28.20
2017-10-08T03:13:09.852Z,29.00
2017-10-08T03:15:14.375Z,28.30
2017-10-08T03:17:17.128Z,29.17
2017-10-08T03:19:19.774Z,30.20
2017-10-08T03:21:23.289Z,29.73
2017-10-08T03:23:25.981Z,29.50
2017-10-08T03:25:28.668Z,27.37
2017-10-08T03:27:31.345Z,28.60
2017-10-08T03:29:34.027Z,26.33
2017-10-08T03:31:36.713Z,27.63
2017-10-08T03:33:39.404Z,27.87
2017-10-08T03:35:42.061Z,26.87
2017-10-08T03:37:44.783Z,28.90
2017-10-08T03:39:48.251Z,28.03
2017-10-08T03:41:50.975Z,28.13
2017-10-08T03:43:53.709Z,27.20
2017-10-08T03:45:56.403Z,27.30
2017-10-08T03:47:59.845Z,28.60
2017-10-08T03:50:02.508Z,28.40
2017-10-08T03:52:05.273Z,25.67
2017-10-08T03:54:08.034Z,26.13
2017-10-08T03:56:11.464Z,25.27
2017-10-08T03:58:14.230Z,27.47
2017-10-08T04:00:17.016Z,26.70
2017-10-08T04:02:19.704Z,26.23
2017-10-08T04:04:22.543Z,25.93
2017-10-08T04:06:25.970Z,24.70
2017-10-08T04:08:28.707Z,25.80
2017-10-08T04:10:31.397Z,24.53
2017-10-08T04:12:34.058Z,23.37
2017-10-08T04:14:37.591Z,25.00
2017-10-08T04:16:40.281Z,25.50
2017-10-08T04:18:43.012Z,23.90
2017-10-08T04:20:45.839Z,21.70
2017-10-08T04:22:48.536Z,23.50
2017-10-08T04:24:51.220Z,23.10
2017-10-08T04:26:53.951Z,22.10
2017-10-08T04:28:56.725Z,22.90
2017-10-08T04:30:59.470Z,21.87
2017-10-08T04:33:03.004Z,23.57
2017-10-08T04:35:05.698Z,25.80
2017-10-08T04:37:08.355Z,24.80
2017-10-08T04:39:11.054Z,24.47
2017-10-08T04:41:13.914Z,23.10
2017-10-08T04:43:16.572Z,23.23
2017-10-08T04:45:19.420Z,23.93
2017-10-08T04:47:22.077Z,24.73
2017-10-08T04:49:24.747Z,22.63
2017-10-08T04:51:27.496Z,23.43
2017-10-08T04:53:30.155Z,21.57
2017-10-08T04:55:32.862Z,25.53
2017-10-08T04:57:35.627Z,23.30
2017-10-08T04:59:38.291Z,24.00
2017-10-08T05:01:40.960Z,24.53
2017-10-08T05:03:43.637Z,26.10
2017-10-08T05:05:46.461Z,24.23
2017-10-08T05:07:49.270Z,27.80
2017-10-08T05:09:51.969Z,25.60
2017-10-08T05:11:55.389Z,23.33
2017-10-08T05:13:58.166Z,26.10
2017-10-08T05:16:00.842Z,24.33
2017-10-08T05:18:03.579Z,25.63
2017-10-08T05:20:06.349Z,22.73
2017-10-08T05:22:09.005Z,24.00
2017-10-08T05:24:11.981Z,23.40
2017-10-08T05:26:15.502Z,22.50
2017-10-08T05:28:18.235Z,23.87
2017-10-08T05:30:21.182Z,24.50
2017-10-08T05:32:27.597Z,23.17
2017-10-08T05:34:31.069Z,23.80
2017-10-08T05:36:33.869Z,24.70
2017-10-08T05:38:36.537Z,25.20
2017-10-08T05:40:39.180Z,27.13
2017-10-08T05:42:42.696Z,23.90
2017-10-08T05:44:45.358Z,23.40
2017-10-08T05:46:48.166Z,26.10
2017-10-08T05:48:51.960Z,25.17
2017-10-08T05:50:54.608Z,23.90
2017-10-08T05:52:58.072Z,25.47
2017-10-08T05:55:00.728Z,24.70
2017-10-08T05:57:04.832Z,24.30
2017-10-08T05:59:07.514Z,22.67
2017-10-08T06:01:10.236Z,24.20
2017-10-08T06:03:12.938Z,22.40
2017-10-08T06:05:15.612Z,22.37
2017-10-08T06:07:19.430Z,22.10
2017-10-08T06:09:22.085Z,21.20
2017-10-08T06:11:24.923Z,20.63
2017-10-08T06:13:27.582Z,20.33
2017-10-08T06:15:30.250Z,21.33
2017-10-08T06:17:33.002Z,18.63
2017-10-08T06:19:35.663Z,20.03
2017-10-08T06:21:38.409Z,17.50
2017-10-08T06:23:41.189Z,19.50
2017-10-08T06:25:44.034Z,20.10
2017-10-08T06:27:46.845Z,18.50
2017-10-08T06:29:49.544Z,18.47
2017-10-08T06:31:52.976Z,17.97
2017-10-08T06:33:55.697Z,18.40
2017-10-08T06:35:58.391Z,18.90
2017-10-08T06:38:01.812Z,20.30
2017-10-08T06:40:04.487Z,19.70
2017-10-08T06:42:07.268Z,17.70
2017-10-08T06:44:10.045Z,17.80
2017-10-08T06:46:12.699Z,17.07
2017-10-08T06:48:16.185Z,19.37
2017-10-08T06:50:19.614Z,18.40
2017-10-08T06:52:22.434Z,17.63
2017-10-08T06:54:25.192Z,15.83
2017-10-08T06:56:27.877Z,15.37
2017-10-08T06:58:30.691Z,15.60
2017-10-08T07:00:34.221Z,17.20
2017-10-08T07:02:36.881Z,14.60
2017-10-08T07:04:39.593Z,14.13
2017-10-08T07:06:45.147Z,13.30
2017-10-08T07:08:48.683Z,14.60
2017-10-08T07:10:52.097Z,11.53
2017-10-08T07:12:54.894Z,10.03
2017-10-08T07:14:57.559Z,8.17
2017-10-08T07:17:00.313Z,8.13
2017-10-08T07:19:03.776Z,10.13
2017-10-08T07:21:06.552Z,10.20
2017-10-08T07:23:09.205Z,10.40
2017-10-08T07:25:11.909Z,10.77
2017-10-08T07:27:14.584Z,7.50
2017-10-08T07:29:17.236Z,7.77
2017-10-08T07:31:19.913Z,6.47
2017-10-08T07:33:22.670Z,7.03
2017-10-08T07:35:25.336Z,8.37
2017-10-08T07:37:28.961Z,6.97
2017-10-08T07:39:31.686Z,8.00
2017-10-08T07:41:34.384Z,5.93
2017-10-08T07:43:37.861Z,5.30
2017-10-08T07:45:40.544Z,5.60
2017-10-08T07:47:43.262Z,7.67
2017-10-08T07:49:45.997Z,8.97
2017-10-08T07:51:48.820Z,7.43
2017-10-08T07:53:51.466Z,10.10
2017-10-08T07:55:54.156Z,8.70
2017-10-08T07:57:56.834Z,11.47
2017-10-08T07:59:59.510Z,13.87
2017-10-08T08:02:02.207Z,9.87
2017-10-08T08:04:04.896Z,16.90
2017-10-08T08:06:07.720Z,18.97
2017-10-08T08:08:11.159Z,22.97
2017-10-08T08:10:13.972Z,10.87
2017-10-08T08:12:16.722Z,14.27
2017-10-08T08:14:19.368Z,6.40
2017-10-08T08:16:22.846Z,6.60
2017-10-08T08:18:26.257Z,10.47
2017-10-08T08:20:28.992Z,5.80
2017-10-08T08:22:31.689Z,6.20
2017-10-08T08:24:35.105Z,7.70
2017-10-08T08:26:37.799Z,6.47
2017-10-08T08:28:40.470Z,5.20
2017-10-08T08:30:43.142Z,5.97
2017-10-08T08:32:45.798Z,8.57
2017-10-08T08:34:49.241Z,7.00
2017-10-08T08:36:51.945Z,6.33
2017-10-08T08:38:55.431Z,5.60
2017-10-08T08:40:58.141Z,6.00
2017-10-08T08:43:00.889Z,6.50
2017-10-08T08:45:03.748Z,5.47
2017-10-08T08:47:06.454Z,6.47
2017-10-08T08:49:09.276Z,5.43
2017-10-08T08:51:11.946Z,7.27
2017-10-08T08:53:14.736Z,5.30
2017-10-08T08:55:17.398Z,4.63
2017-10-08T08:57:20.227Z,8.00
2017-10-08T08:59:22.900Z,6.37
2017-10-08T09:01:25.557Z,4.27
2017-10-08T09:03:28.339Z,4.10
2017-10-08T09:05:32.118Z,2.90
2017-10-08T09:07:34.903Z,3.40
2017-10-08T09:09:37.548Z,3.60
2017-10-08T09:11:41.098Z,3.07
2017-10-08T09:13:43.912Z,3.60
2017-10-08T09:15:47.333Z,3.20
2017-10-08T09:17:51.162Z,2.83
2017-10-08T09:19:54.965Z,2.73
2017-10-08T09:21:58.762Z,2.40
2017-10-08T09:24:01.455Z,2.60
2017-10-08T09:26:04.145Z,2.30
2017-10-08T09:28:06.830Z,2.93
2017-10-08T09:30:09.739Z,3.17
2017-10-08T09:32:12.514Z,3.10
2017-10-08T09:34:16.049Z,2.37
2017-10-08T09:36:18.765Z,2.40
2017-10-08T09:38:21.404Z,2.00
2017-10-08T09:40:24.087Z,1.90
2017-10-08T09:42:26.845Z,2.83
2017-10-08T09:44:29.488Z,2.47
2017-10-08T09:46:32.301Z,2.77
2017-10-08T09:48:35.041Z,2.43
2017-10-08T09:50:38.484Z,2.20
2017-10-08T09:52:41.185Z,2.57
2017-10-08T09:54:43.867Z,4.10
2017-10-08T09:56:46.518Z,3.70
2017-10-08T09:58:49.447Z,2.73
2017-10-08T10:00:52.889Z,2.80
2017-10-08T10:02:55.632Z,2.43
2017-10-08T10:04:59.042Z,3.40
2017-10-08T10:07:01.827Z,2.60
2017-10-08T10:09:04.548Z,2.30
2017-10-08T10:11:07.206Z,2.77
2017-10-08T10:13:09.920Z,2.20
2017-10-08T10:15:12.647Z,2.30
2017-10-08T10:17:15.337Z,2.50
2017-10-08T10:19:18.027Z,3.37
2017-10-08T10:21:20.669Z,3.40
2017-10-08T10:23:23.470Z,2.60
2017-10-08T10:25:26.196Z,2.90
2017-10-08T10:27:28.855Z,2.40
2017-10-08T10:29:31.541Z,2.73
2017-10-08T10:31:34.414Z,6.60
2017-10-08T10:33:37.355Z,2.43
2017-10-08T10:35:40.077Z,1.77
2017-10-08T10:37:43.520Z,1.90
2017-10-08T10:39:46.185Z,2.30
2017-10-08T10:41:48.836Z,2.93
2017-10-08T10:43:52.282Z,2.80
2017-10-08T10:45:55.031Z,2.53
2017-10-08T10:47:57.735Z,3.03
2017-10-08T10:50:00.408Z,3.57
2017-10-08T10:52:03.166Z,3.27
2017-10-08T10:54:05.837Z,2.30
2017-10-08T10:56:08.558Z,2.60
2017-10-08T10:58:11.261Z,3.10
2017-10-08T11:00:14.686Z,2.63
2017-10-08T11:02:17.559Z,3.40
2017-10-08T11:04:20.234Z,2.83
2017-10-08T11:06:22.924Z,2.80
2017-10-08T11:08:25.757Z,3.50
2017-10-08T11:10:33.815Z,3.13
2017-10-08T11:12:36.514Z,9.03
2017-10-08T11:14:39.370Z,2.67
2017-10-08T11:16:42.053Z,2.90
2017-10-08T11:18:46.348Z,3.50
2017-10-08T11:20:49.166Z,9.17
2017-10-08T11:22:51.982Z,4.47
2017-10-08T11:24:55.501Z,2.13
2017-10-08T11:26:59.990Z,2.73
2017-10-08T11:29:02.670Z,2.30
2017-10-08T11:31:06.191Z,2.07
2017-10-08T11:33:08.895Z,2.03
2017-10-08T11:35:12.367Z,2.03
2017-10-08T11:37:15.090Z,3.03
2017-10-08T11:39:18.001Z,2.80
2017-10-08T11:41:21.578Z,2.80
2017-10-08T11:43:24.424Z,1.90
2017-10-08T11:45:28.049Z,2.13
2017-10-08T11:47:30.847Z,1.40
2017-10-08T11:49:34.290Z,1.43
2017-10-08T11:51:36.975Z,1.30
2017-10-08T11:53:39.668Z,1.30
2017-10-08T11:55:42.459Z,1.47
2017-10-08T11:57:45.166Z,1.10
2017-10-08T11:59:48.745Z,1.30
2017-10-08T12:01:52.259Z,1.30
2017-10-08T12:03:54.938Z,2.40
2017-10-08T12:05:57.600Z,1.47
2017-10-08T12:08:00.331Z,1.37
2017-10-08T12:10:03.052Z,1.87
2017-10-08T12:12:05.881Z,1.70
2017-10-08T12:14:08.557Z,1.37
2017-10-08T12:16:11.242Z,1.20
2017-10-08T12:18:13.961Z,1.13
2017-10-08T12:20:20.853Z,1.33
2017-10-08T12:22:24.287Z,1.40
2017-10-08T12:24:26.939Z,2.00
2017-10-08T12:26:29.699Z,1.90
2017-10-08T12:28:32.400Z,2.03
2017-10-08T12:30:35.277Z,2.20
2017-10-08T12:32:38.001Z,1.63
2017-10-08T12:34:40.661Z,1.80
2017-10-08T12:36:43.339Z,1.50
2017-10-08T12:38:46.011Z,1.27
2017-10-08T12:40:48.700Z,1.43
2017-10-08T12:42:52.482Z,1.40
2017-10-08T12:44:55.159Z,1.60
2017-10-08T12:46:57.847Z,1.60
2017-10-08T12:49:00.582Z,1.43
2017-10-08T12:51:03.332Z,1.23
2017-10-08T12:53:06.075Z,1.20
2017-10-08T12:55:08.734Z,1.70
2017-10-08T12:57:11.442Z,1.70
2017-10-08T12:59:14.131Z,1.77
2017-10-08T13:01:17.551Z,1.30
2017-10-08T13:03:20.236Z,1.43
2017-10-08T13:05:22.929Z,1.60
2017-10-08T13:07:25.640Z,1.80
2017-10-08T13:09:28.415Z,2.40
2017-10-08T13:11:31.151Z,2.20
2017-10-08T13:13:38.429Z,3.57
2017-10-08T13:15:41.273Z,2.30
2017-10-08T13:17:43.921Z,1.90
2017-10-08T13:19:46.604Z,4.10
2017-10-08T13:21:49.313Z,2.90
2017-10-08T13:23:51.987Z,2.37
2017-10-08T13:25:55.510Z,3.60
2017-10-08T13:27:58.178Z,2.57
2017-10-08T13:30:00.845Z,1.80
2017-10-08T13:32:04.258Z,2.30
2017-10-08T13:34:07.047Z,2.83
2017-10-08T13:36:09.848Z,1.60
2017-10-08T13:38:12.510Z,2.00
2017-10-08T13:40:15.191Z,1.63
2017-10-08T13:42:17.944Z,1.73
2017-10-08T13:44:20.701Z,1.33
2017-10-08T13:46:24.150Z,3.20
2017-10-08T13:48:26.859Z,1.50
2017-10-08T13:50:30.286Z,1.50
2017-10-08T13:52:32.978Z,1.50
2017-10-08T13:54:35.689Z,1.57
2017-10-08T13:56:38.337Z,1.63
2017-10-08T13:58:41.103Z,1.97
2017-10-08T14:00:43.750Z,1.63
2017-10-08T14:02:47.492Z,1.80
2017-10-08T14:04:50.251Z,1.83
2017-10-08T14:06:52.916Z,3.17
2017-10-08T14:08:55.689Z,2.20
2017-10-08T14:10:58.443Z,2.10
2017-10-08T14:13:01.095Z,1.70
2017-10-08T14:15:03.876Z,1.73
2017-10-08T14:17:06.648Z,4.07
2017-10-08T14:19:09.400Z,9.23
2017-10-08T14:21:12.117Z,7.33
2017-10-08T14:23:14.811Z,8.73
2017-10-08T14:25:18.347Z,5.03
2017-10-08T14:27:21.022Z,3.70
2017-10-08T14:29:23.876Z,3.87
2017-10-08T14:31:26.546Z,2.77
2017-10-08T14:33:29.993Z,2.10
2017-10-08T14:35:33.957Z,4.60
2017-10-08T14:37:36.761Z,2.23
2017-10-08T14:39:39.535Z,5.27
2017-10-08T14:41:42.231Z,3.80
2017-10-08T14:43:45.025Z,3.70
2017-10-08T14:45:48.485Z,6.50
2017-10-08T14:47:51.184Z,3.33
2017-10-08T14:49:54.647Z,3.00
2017-10-08T14:51:57.323Z,4.50
2017-10-08T14:53:59.998Z,3.90
2017-10-08T14:56:02.784Z,3.90
2017-10-08T14:58:05.432Z,5.20
2017-10-08T15:00:08.959Z,8.80
2017-10-08T15:02:11.612Z,7.63
2017-10-08T15:04:15.200Z,9.10
2017-10-08T15:06:18.733Z,22.37
2017-10-08T15:08:21.388Z,14.33
2017-10-08T15:10:24.171Z,9.90
2017-10-08T15:12:26.864Z,3.60
2017-10-08T15:14:29.547Z,3.90
2017-10-08T15:16:32.405Z,11.40
2017-10-08T15:18:35.064Z,5.37
2017-10-08T15:20:38.572Z,5.97
2017-10-08T15:22:41.253Z,3.50
2017-10-08T15:24:43.902Z,3.47
2017-10-08T15:26:46.636Z,3.87
2017-10-08T15:28:49.337Z,2.73
2017-10-08T15:30:52.010Z,2.43
2017-10-08T15:32:54.649Z,3.03
2017-10-08T15:34:57.325Z,2.03
2017-10-08T15:37:00.048Z,2.20
2017-10-08T15:39:02.724Z,2.00
2017-10-08T15:41:05.453Z,2.20
2017-10-08T15:43:08.185Z,2.00
2017-10-08T15:45:11.958Z,1.90
2017-10-08T15:47:14.675Z,2.50
2017-10-08T15:49:18.112Z,1.80
2017-10-08T15:51:20.856Z,1.97
2017-10-08T15:53:24.313Z,1.73
2017-10-08T15:55:26.993Z,4.63
2017-10-08T15:57:29.741Z,3.30
2017-10-08T15:59:32.517Z,3.60
2017-10-08T16:01:35.154Z,2.03
2017-10-08T16:03:38.618Z,1.43
2017-10-08T16:05:41.354Z,2.13
2017-10-08T16:07:44.042Z,1.90
2017-10-08T16:09:46.797Z,2.00
2017-10-08T16:11:50.281Z,7.37
2017-10-08T16:13:53.854Z,1.80
2017-10-08T16:15:56.560Z,6.87
2017-10-08T16:17:59.368Z,4.97
2017-10-08T16:20:02.134Z,2.70
2017-10-08T16:22:04.909Z,3.00
2017-10-08T16:24:08.631Z,3.80
2017-10-08T16:26:11.295Z,19.83
2017-10-08T16:28:14.058Z,7.50
2017-10-08T16:30:16.972Z,6.17
2017-10-08T16:32:19.622Z,27.50
2017-10-08T16:34:22.311Z,7.53
2017-10-08T16:36:24.974Z,3.63
2017-10-08T16:38:28.610Z,4.20
2017-10-08T16:40:31.431Z,4.37
2017-10-08T16:42:34.870Z,3.80
2017-10-08T16:44:38.352Z,2.77
2017-10-08T16:46:41.074Z,2.60
2017-10-08T16:48:43.795Z,2.73
2017-10-08T16:50:46.479Z,3.50
2017-10-08T16:52:49.175Z,2.50
2017-10-08T16:54:51.931Z,2.80
2017-10-08T16:56:54.591Z,4.83
2017-10-08T16:58:59.032Z,3.10
2017-10-08T17:01:03.304Z,10.33
2017-10-08T17:03:06.741Z,15.13
2017-10-08T17:05:09.722Z,7.13
2017-10-08T17:07:12.440Z,5.60
2017-10-08T17:09:15.103Z,5.10
2017-10-08T17:11:17.779Z,5.43
2017-10-08T17:13:20.483Z,5.43
2017-10-08T17:15:23.927Z,6.07
2017-10-08T17:17:26.653Z,5.57
2017-10-08T17:19:29.369Z,8.07
2017-10-08T17:21:32.129Z,5.93
2017-10-08T17:23:35.591Z,6.30
2017-10-08T17:25:38.226Z,5.93
2017-10-08T17:27:40.990Z,5.50
2017-10-08T17:29:43.709Z,7.03
2017-10-08T17:31:46.623Z,6.10
2017-10-08T17:33:50.107Z,5.90
2017-10-08T17:35:53.647Z,5.00
2017-10-08T17:37:56.355Z,4.73
2017-10-08T17:39:59.172Z,8.40
2017-10-08T17:42:02.592Z,4.47
2017-10-08T17:44:05.657Z,4.20
2017-10-08T17:46:10.661Z,4.00
2017-10-08T17:48:13.329Z,3.53
2017-10-08T17:50:15.969Z,2.97
2017-10-08T17:52:18.687Z,3.10
2017-10-08T17:54:22.109Z,4.90
2017-10-08T17:56:25.672Z,5.40
2017-10-08T17:58:28.462Z,5.40
2017-10-08T18:00:31.127Z,4.33
2017-10-08T18:02:33.997Z,4.87
2017-10-08T18:04:36.692Z,5.17
2017-10-08T18:06:39.368Z,5.00
2017-10-08T18:08:42.122Z,4.50
2017-10-08T18:10:44.912Z,5.93
2017-10-08T18:12:47.715Z,6.10
2017-10-08T18:14:51.400Z,6.00
2017-10-08T18:16:54.198Z,6.17
2017-10-08T18:18:57.665Z,6.23
2017-10-08T18:21:00.404Z,7.30
2017-10-08T18:23:03.159Z,11.80
2017-10-08T18:25:06.676Z,11.87
2017-10-08T18:27:09.468Z,11.83
2017-10-08T18:29:12.204Z,13.30
2017-10-08T18:31:15.633Z,10.50
2017-10-08T18:33:18.431Z,9.63
2017-10-08T18:35:21.132Z,9.33
2017-10-08T18:37:23.910Z,8.60
2017-10-08T18:39:27.688Z,7.37
2017-10-08T18:41:30.425Z,9.87
2017-10-08T18:43:33.128Z,10.63
2017-10-08T18:45:35.779Z,9.40
2017-10-08T18:47:38.471Z,8.90
2017-10-08T18:49:41.351Z,8.87
2017-10-08T18:51:44.031Z,8.83
2017-10-08T18:53:46.851Z,10.53
2017-10-08T18:55:49.639Z,10.30
2017-10-08T18:57:52.316Z,11.90
2017-10-08T18:59:55.131Z,12.13
2017-10-08T19:01:57.922Z,10.73
2017-10-08T19:04:00.573Z,10.70
2017-10-08T19:06:05.131Z,14.17
2017-10-08T19:08:07.821Z,12.70
2017-10-08T19:10:10.545Z,14.30
2017-10-08T19:12:14.019Z,12.10
2017-10-08T19:14:16.774Z,11.80
2017-10-08T19:16:19.481Z,9.47
2017-10-08T19:18:23.105Z,9.97
2017-10-08T19:20:25.950Z,9.50
2017-10-08T19:22:28.611Z,10.07
2017-10-08T19:24:31.372Z,10.47
2017-10-08T19:26:34.782Z,9.90
2017-10-08T19:28:37.431Z,9.40
2017-10-08T19:30:40.226Z,9.57
2017-10-08T19:32:42.953Z,10.13
2017-10-08T19:34:46.459Z,11.43
2017-10-08T19:36:49.280Z,17.57
2017-10-08T19:38:52.904Z,15.17
2017-10-08T19:40:55.604Z,12.70
2017-10-08T19:42:59.177Z,11.23
2017-10-08T19:45:01.859Z,13.27
2017-10-08T19:47:04.553Z,11.90
2017-10-08T19:49:08.071Z,11.97
2017-10-08T19:51:10.809Z,12.20
2017-10-08T19:53:13.468Z,12.00
2017-10-08T19:55:16.176Z,11.60
2017-10-08T19:57:19.601Z,11.40
2017-10-08T19:59:22.373Z,10.80
2017-10-08T20:01:25.159Z,11.97
2017-10-08T20:03:27.827Z,11.80
2017-10-08T20:05:30.658Z,11.60
2017-10-08T20:07:33.340Z,11.67
2017-10-08T20:09:36.265Z,11.73
2017-10-08T20:11:39.004Z,12.10
2017-10-08T20:13:41.680Z,12.67
2017-10-08T20:15:45.133Z,13.53
2017-10-08T20:17:48.938Z,12.53
2017-10-08T20:19:51.696Z,13.60
2017-10-08T20:21:54.487Z,14.33
2017-10-08T20:23:57.121Z,13.53
2017-10-08T20:26:00.612Z,13.60
2017-10-08T20:28:04.057Z,13.07
2017-10-08T20:30:06.813Z,13.20
2017-10-08T20:32:09.643Z,13.03
2017-10-08T20:34:12.306Z,12.43
2017-10-08T20:36:15.845Z,12.23
2017-10-08T20:38:19.302Z,10.57
2017-10-08T20:40:22.230Z,11.50
2017-10-08T20:42:25.018Z,12.53
2017-10-08T20:44:27.733Z,12.23
2017-10-08T20:46:31.197Z,12.90
2017-10-08T20:48:33.945Z,13.53
2017-10-08T20:50:37.632Z,12.90
2017-10-08T20:52:40.285Z,12.70
2017-10-08T20:54:42.945Z,13.27
2017-10-08T20:56:45.701Z,12.97
2017-10-08T20:58:48.357Z,12.63
2017-10-08T21:00:51.054Z,19.90
2017-10-08T21:02:53.738Z,17.63
2017-10-08T21:04:56.476Z,18.30
2017-10-08T21:06:59.924Z,20.70
2017-10-08T21:09:02.588Z,20.87
2017-10-08T21:11:05.412Z,20.00
2017-10-08T21:13:08.181Z,20.47
2017-10-08T21:15:11.644Z,19.20
2017-10-08T21:17:14.404Z,18.70
2017-10-08T21:19:17.094Z,14.77
2017-10-08T21:21:19.968Z,14.17
2017-10-08T21:23:22.820Z,12.23
2017-10-08T21:25:26.369Z,12.47
2017-10-08T21:27:29.083Z,10.23
2017-10-08T21:29:32.514Z,9.13
2017-10-08T21:31:35.321Z,7.70
2017-10-08T21:33:37.979Z,8.10
2017-10-08T21:35:40.656Z,8.27
2017-10-08T21:37:43.384Z,6.57
2017-10-08T21:39:46.825Z,7.40
2017-10-08T21:41:49.683Z,7.27
2017-10-08T21:43:52.386Z,7.63
2017-10-08T21:45:55.043Z,8.00
2017-10-08T21:47:57.746Z,7.43
2017-10-08T21:50:00.427Z,8.83
2017-10-08T21:52:03.197Z,8.70
2017-10-08T21:54:05.957Z,8.23
2017-10-08T21:56:08.651Z,9.20
2017-10-08T21:58:11.315Z,9.00
2017-10-08T22:00:13.996Z,8.60
2017-10-08T22:02:16.671Z,8.40
2017-10-08T22:04:19.322Z,8.60
2017-10-08T22:06:22.747Z,7.80
2017-10-08T22:08:25.443Z,7.97
2017-10-08T22:10:28.129Z,8.60
2017-10-08T22:12:30.788Z,8.63
2017-10-08T22:14:33.545Z,7.10
2017-10-08T22:16:36.315Z,6.80
2017-10-08T22:18:38.977Z,6.83
2017-10-08T22:20:41.724Z,7.30
2017-10-08T22:22:44.370Z,6.30
2017-10-08T22:24:47.165Z,7.60
2017-10-08T22:26:49.945Z,7.63
2017-10-08T22:28:52.590Z,8.73
2017-10-08T22:30:55.267Z,8.27
2017-10-08T22:32:58.072Z,8.63
2017-10-08T22:35:00.788Z,7.03
2017-10-08T22:37:04.289Z,7.33
2017-10-08T22:39:07.010Z,8.10
2017-10-08T22:41:09.748Z,8.50
2017-10-08T22:43:12.399Z,8.13
2017-10-08T22:45:15.956Z,7.40
2017-10-08T22:47:18.703Z,8.03
2017-10-08T22:49:21.549Z,8.30
2017-10-08T22:51:26.460Z,8.93
2017-10-08T22:53:29.134Z,9.37
2017-10-08T22:55:31.945Z,11.47
2017-10-08T22:57:35.428Z,11.80
2017-10-08T22:59:38.100Z,11.43
2017-10-08T23:01:40.862Z,12.60
2017-10-08T23:03:45.118Z,11.67
2017-10-08T23:05:48.640Z,12.10
2017-10-08T23:07:51.340Z,12.10
2017-10-08T23:09:54.059Z,11.70
2017-10-08T23:11:56.732Z,11.17
2017-10-08T23:14:00.178Z,9.27
2017-10-08T23:16:02.929Z,9.33
2017-10-08T23:18:05.572Z,9.57
2017-10-08T23:20:08.272Z,8.50
2017-10-08T23:22:11.039Z,7.90
2017-10-08T23:24:14.477Z,8.77
2017-10-08T23:26:17.142Z,7.00
2017-10-08T23:28:19.806Z,6.77
2017-10-08T23:30:22.469Z,6.90
2017-10-08T23:32:25.955Z,7.43
2017-10-08T23:34:29.355Z,8.07
2017-10-08T23:36:32.137Z,7.03
2017-10-08T23:38:34.777Z,7.50
2017-10-08T23:40:37.460Z,7.40
2017-10-08T23:42:40.211Z,7.97
2017-10-08T23:44:42.856Z,8.30
2017-10-08T23:46:45.509Z,7.70
2017-10-08T23:48:48.924Z,6.93
2017-10-08T23:50:51.646Z,7.00
2017-10-08T23:52:54.370Z,7.00
2017-10-08T23:54:57.034Z,7.37
2017-10-08T23:57:00.520Z,6.57
2017-10-08T23:59:04.000Z,8.13
